createdAt,value
2022-10-12T00:03:29.898Z,6.65
2022-10-12T00:06:53.864Z,4.40
2022-10-12T00:10:17.887Z,7.45
2022-10-12T00:13:41.919Z,7.45
2022-10-12T00:17:05.912Z,6.80
2022-10-12T00:20:29.877Z,5.68
2022-10-12T00:23:53.866Z,7.47
2022-10-12T00:27:17.882Z,8.70
2022-10-12T00:30:42.897Z,9.82
2022-10-12T00:34:07.881Z,5.55
2022-10-12T00:37:32.903Z,5.65
2022-10-12T00:40:56.939Z,5.70
2022-10-12T00:44:54.898Z,4.38
2022-10-12T00:48:19.042Z,5.80
2022-10-12T00:51:42.873Z,9.13
2022-10-12T00:55:06.912Z,4.47
2022-10-12T00:58:31.920Z,4.03
2022-10-12T01:01:56.963Z,7.35
2022-10-12T01:05:23.907Z,6.70
2022-10-12T01:08:47.916Z,6.32
2022-10-12T01:12:12.952Z,6.53
2022-10-12T01:15:38.962Z,5.53
2022-10-12T01:19:23.014Z,6.40
2022-10-12T01:22:49.925Z,5.60
2022-10-12T01:26:35.935Z,6.85
2022-10-12T01:30:20.951Z,6.07
2022-10-12T01:33:54.966Z,7.07
2022-10-12T01:37:35.222Z,7.53
2022-10-12T01:41:04.935Z,5.93
2022-10-12T01:44:41.991Z,6.38
2022-10-12T01:48:08.954Z,6.00
2022-10-12T01:51:49.967Z,7.32
2022-10-12T01:55:19.942Z,4.20
2022-10-12T01:59:07.958Z,6.00
2022-10-12T02:02:34.977Z,5.22
2022-10-12T02:06:12.006Z,5.75
2022-10-12T02:09:40.977Z,6.78
2022-10-12T02:13:04.974Z,6.63
2022-10-12T02:16:31.968Z,5.40
2022-10-12T02:19:58.966Z,7.60
2022-10-12T02:23:23.979Z,6.25
2022-10-12T02:26:50.069Z,5.72
2022-10-12T02:30:13.989Z,5.65
2022-10-12T02:34:06.997Z,8.70
2022-10-12T02:37:45.952Z,6.85
2022-10-12T02:41:16.952Z,5.43
2022-10-12T02:44:48.962Z,7.18
2022-10-12T02:48:14.942Z,9.77
2022-10-12T02:51:38.914Z,6.05
2022-10-12T02:55:02.964Z,9.52
2022-10-12T02:58:26.945Z,6.68
2022-10-12T03:01:50.949Z,6.47
2022-10-12T03:05:14.981Z,7.30
2022-10-12T03:08:39.969Z,6.57
2022-10-12T03:12:03.945Z,6.30
2022-10-12T03:15:30.003Z,6.10
2022-10-12T03:18:53.968Z,7.20
2022-10-12T03:22:19.960Z,9.35
2022-10-12T03:25:43.979Z,6.90
2022-10-12T03:29:08.930Z,5.78
2022-10-12T03:32:33.032Z,7.80
2022-10-12T03:35:52.543Z,10.20
2022-10-12T03:39:10.026Z,6.57
2022-10-12T03:42:33.975Z,8.60
2022-10-12T03:45:58.029Z,6.63
2022-10-12T03:49:21.986Z,7.55
2022-10-12T03:52:47.033Z,7.97
2022-10-12T03:56:10.961Z,10.65
2022-10-12T03:59:35.033Z,6.93
2022-10-12T04:02:59.970Z,6.65
2022-10-12T04:06:24.020Z,7.03
2022-10-12T04:09:47.991Z,9.10
2022-10-12T04:13:13.033Z,9.68
2022-10-12T04:16:36.981Z,6.60
2022-10-12T04:20:00.999Z,10.95
2022-10-12T04:23:25.008Z,11.20
2022-10-12T04:26:49.006Z,6.40
2022-10-12T04:30:12.021Z,6.00
2022-10-12T04:33:37.046Z,4.80
2022-10-12T04:37:01.043Z,6.57
2022-10-12T04:40:26.039Z,7.13
2022-10-12T04:43:50.081Z,6.13
2022-10-12T04:47:13.968Z,9.23
2022-10-12T04:50:38.042Z,6.43
2022-10-12T04:54:01.968Z,6.47
2022-10-12T04:57:26.030Z,7.20
2022-10-12T05:00:50.016Z,7.25
2022-10-12T05:04:14.078Z,6.90
2022-10-12T05:07:38.323Z,7.28
2022-10-12T05:11:06.067Z,6.28
2022-10-12T05:14:35.003Z,7.07
2022-10-12T05:18:00.073Z,6.85
2022-10-12T05:21:25.064Z,5.15
2022-10-12T05:24:53.598Z,5.88
2022-10-12T05:28:19.112Z,7.65
2022-10-12T05:31:43.002Z,6.30
2022-10-12T05:35:07.046Z,5.32
2022-10-12T05:38:31.028Z,7.63
2022-10-12T05:41:55.057Z,5.57
2022-10-12T05:45:20.111Z,5.95
2022-10-12T05:48:43.030Z,5.68
2022-10-12T05:52:08.198Z,8.48
2022-10-12T05:55:32.055Z,6.88
2022-10-12T05:58:57.035Z,6.80
2022-10-12T06:02:22.077Z,9.40
2022-10-12T06:05:47.039Z,8.80
2022-10-12T06:09:11.099Z,9.45
2022-10-12T06:12:36.367Z,8.63
2022-10-12T06:16:02.031Z,10.50
2022-10-12T06:19:26.088Z,8.65
2022-10-12T06:22:50.078Z,9.98
2022-10-12T06:26:15.072Z,8.68
2022-10-12T06:29:39.052Z,9.40
2022-10-12T06:32:56.044Z,9.98
2022-10-12T06:36:13.715Z,10.48
2022-10-12T06:39:34.119Z,9.45
2022-10-12T06:42:59.099Z,10.57
2022-10-12T06:46:23.127Z,9.60
2022-10-12T06:49:47.051Z,10.40
2022-10-12T06:53:11.089Z,9.82
2022-10-12T06:56:35.076Z,10.93
2022-10-12T06:59:58.109Z,7.55
2022-10-12T07:03:22.067Z,8.75
2022-10-12T07:06:46.054Z,17.20
2022-10-12T07:10:10.060Z,11.32
2022-10-12T07:13:34.072Z,10.18
2022-10-12T07:16:59.113Z,12.55
2022-10-12T07:20:23.156Z,10.75
2022-10-12T07:23:48.066Z,11.80
2022-10-12T07:27:12.048Z,9.40
2022-10-12T07:30:36.113Z,11.65
2022-10-12T07:34:00.117Z,9.57
2022-10-12T07:37:18.724Z,8.77
2022-10-12T07:40:36.091Z,10.10
2022-10-12T07:44:01.044Z,10.15
2022-10-12T07:47:26.128Z,8.65
2022-10-12T07:50:50.086Z,8.93
2022-10-12T07:54:18.959Z,13.82
2022-10-12T07:57:44.083Z,11.50
2022-10-12T08:01:08.098Z,11.45
2022-10-12T08:04:32.114Z,11.02
2022-10-12T08:07:56.140Z,10.80
2022-10-12T08:11:20.072Z,11.50
2022-10-12T08:14:44.091Z,11.13
2022-10-12T08:18:08.119Z,9.80
2022-10-12T08:21:32.095Z,8.10
2022-10-12T08:24:56.091Z,14.02
2022-10-12T08:28:20.145Z,13.07
2022-10-12T08:31:44.144Z,11.23
2022-10-12T08:35:08.148Z,10.68
2022-10-12T08:38:25.708Z,11.07
2022-10-12T08:42:09.139Z,9.85
2022-10-12T08:45:53.131Z,8.05
2022-10-12T08:49:30.104Z,6.85
2022-10-12T08:53:00.165Z,7.82
2022-10-12T08:56:24.146Z,10.52
2022-10-12T08:59:49.147Z,8.88
2022-10-12T09:03:24.128Z,11.77
2022-10-12T09:07:03.111Z,9.68
2022-10-12T09:10:48.095Z,9.70
2022-10-12T09:14:36.120Z,10.10
2022-10-12T09:18:11.182Z,9.52
2022-10-12T09:21:36.123Z,9.02
2022-10-12T09:25:02.135Z,9.30
2022-10-12T09:28:36.600Z,8.80
2022-10-12T09:32:14.137Z,8.00
2022-10-12T09:35:38.149Z,9.77
2022-10-12T09:38:56.762Z,10.45
2022-10-12T09:42:14.225Z,12.48
2022-10-12T09:45:39.123Z,10.27
2022-10-12T09:49:21.155Z,9.80
2022-10-12T09:53:05.141Z,10.55
2022-10-12T09:56:42.139Z,8.75
2022-10-12T10:00:06.163Z,10.88
2022-10-12T10:03:41.202Z,9.82
2022-10-12T10:07:06.146Z,9.05
2022-10-12T10:10:33.191Z,7.50
2022-10-12T10:14:03.142Z,9.80
2022-10-12T10:17:38.156Z,13.00
2022-10-12T10:21:15.163Z,8.65
2022-10-12T10:24:46.144Z,8.88
2022-10-12T10:28:43.269Z,8.73
2022-10-12T10:32:23.154Z,12.13
2022-10-12T10:35:50.151Z,8.60
2022-10-12T10:39:19.139Z,9.23
2022-10-12T10:42:45.207Z,10.40
2022-10-12T10:46:15.169Z,11.25
2022-10-12T10:49:50.181Z,10.10
2022-10-12T10:53:16.172Z,10.85
2022-10-12T10:56:46.211Z,10.23
2022-10-12T11:00:37.309Z,9.20
2022-10-12T11:04:16.182Z,9.65
2022-10-12T11:07:55.138Z,7.03
2022-10-12T11:11:29.175Z,9.25
2022-10-12T11:15:00.184Z,8.55
2022-10-12T11:18:35.160Z,12.45
2022-10-12T11:22:04.146Z,9.90
2022-10-12T11:25:34.164Z,9.15
2022-10-12T11:28:58.263Z,12.20
2022-10-12T11:32:41.175Z,11.43
2022-10-12T11:36:06.234Z,11.13
2022-10-12T11:39:45.987Z,10.45
2022-10-12T11:43:09.231Z,10.43
2022-10-12T11:46:59.205Z,14.18
2022-10-12T11:50:48.199Z,9.32
2022-10-12T11:54:15.790Z,10.63
2022-10-12T11:57:46.234Z,12.30
2022-10-12T12:01:39.170Z,15.45
2022-10-12T12:05:04.203Z,10.18
2022-10-12T12:08:55.161Z,17.30
2022-10-12T12:12:27.211Z,19.27
2022-10-12T12:15:51.178Z,15.90
2022-10-12T12:20:11.208Z,15.68
2022-10-12T12:23:44.204Z,15.95
2022-10-12T12:27:07.203Z,7.97
2022-10-12T12:30:34.205Z,11.02
2022-10-12T12:34:00.243Z,10.63
2022-10-12T12:37:27.296Z,10.20
2022-10-12T12:40:44.808Z,8.70
2022-10-12T12:44:07.271Z,10.50
2022-10-12T12:47:45.883Z,8.93
2022-10-12T12:51:12.276Z,8.90
2022-10-12T12:54:37.261Z,11.73
2022-10-12T12:58:22.237Z,7.97
2022-10-12T13:02:04.250Z,10.75
2022-10-12T13:05:41.238Z,10.02
2022-10-12T13:09:32.253Z,8.98
2022-10-12T13:13:07.215Z,6.93
2022-10-12T13:20:30.264Z,8.15
2022-10-12T13:23:54.206Z,8.88
2022-10-12T13:27:41.262Z,8.80
2022-10-12T13:31:18.257Z,8.48
2022-10-12T13:34:57.300Z,8.45
2022-10-12T13:38:31.233Z,9.35
2022-10-12T13:41:55.276Z,8.57
2022-10-12T13:45:23.226Z,8.95
2022-10-12T13:48:59.345Z,12.30
2022-10-12T13:52:31.924Z,9.82
2022-10-12T13:55:56.298Z,10.98
2022-10-12T13:59:20.250Z,10.90
2022-10-12T14:02:46.257Z,9.27
2022-10-12T14:06:10.217Z,7.68
2022-10-12T14:09:37.294Z,8.30
2022-10-12T14:13:04.308Z,9.15
2022-10-12T14:16:28.225Z,7.85
2022-10-12T14:20:03.295Z,11.18
2022-10-12T14:23:31.278Z,7.57
2022-10-12T14:27:00.284Z,10.00
2022-10-12T14:30:36.311Z,8.48
2022-10-12T14:34:00.286Z,9.10
2022-10-12T14:37:30.262Z,8.20
2022-10-12T14:40:54.259Z,8.77
2022-10-12T14:44:38.273Z,8.18
2022-10-12T14:48:02.283Z,6.80
2022-10-12T14:51:26.343Z,8.38
2022-10-12T14:54:51.336Z,8.38
2022-10-12T14:58:16.312Z,9.02
2022-10-12T15:01:41.732Z,9.73
2022-10-12T15:05:06.301Z,11.82
2022-10-12T15:08:31.315Z,10.43
2022-10-12T15:11:55.276Z,10.25
2022-10-12T15:15:40.401Z,9.32
2022-10-12T15:19:04.284Z,10.02
2022-10-12T15:22:33.321Z,9.65
2022-10-12T15:26:08.270Z,13.65
2022-10-12T15:29:32.320Z,10.35
2022-10-12T15:32:56.283Z,9.45
2022-10-12T15:36:20.318Z,10.20
2022-10-12T15:39:44.316Z,10.80
2022-10-12T15:43:08.425Z,9.30
2022-10-12T15:46:32.342Z,9.07
2022-10-12T15:49:56.297Z,12.32
2022-10-12T15:53:21.346Z,10.38
2022-10-12T15:56:45.313Z,10.45
2022-10-12T16:00:09.611Z,12.20
2022-10-12T16:03:39.304Z,13.02
2022-10-12T16:07:03.303Z,11.23
2022-10-12T16:10:28.330Z,10.88
2022-10-12T16:13:56.678Z,10.23
2022-10-12T16:17:21.311Z,14.02
2022-10-12T16:20:51.113Z,11.88
2022-10-12T16:24:18.309Z,11.57
2022-10-12T16:27:42.296Z,11.40
2022-10-12T16:31:07.348Z,12.00
2022-10-12T16:34:30.355Z,9.75
2022-10-12T16:37:54.274Z,11.68
2022-10-12T16:41:24.353Z,14.27
2022-10-12T16:44:49.361Z,12.38
2022-10-12T16:48:13.365Z,13.50
2022-10-12T16:51:37.371Z,16.08
2022-10-12T16:55:01.291Z,13.27
2022-10-12T16:58:25.367Z,14.38
2022-10-12T17:01:50.285Z,13.82
2022-10-12T17:05:14.355Z,17.95
2022-10-12T17:08:38.321Z,15.45
2022-10-12T17:12:02.370Z,16.90
2022-10-12T17:15:26.327Z,17.30
2022-10-12T17:18:50.361Z,17.23
2022-10-12T17:22:15.488Z,20.58
2022-10-12T17:25:40.386Z,16.60
2022-10-12T17:29:04.334Z,15.80
2022-10-12T17:32:28.374Z,17.50
2022-10-12T17:35:54.364Z,16.58
2022-10-12T17:39:18.346Z,15.70
2022-10-12T17:42:42.331Z,16.88
2022-10-12T17:46:05.343Z,16.90
2022-10-12T17:49:31.353Z,14.95
2022-10-12T17:52:55.351Z,16.90
2022-10-12T17:56:20.378Z,15.73
2022-10-12T17:59:44.438Z,22.33
2022-10-12T18:03:08.364Z,16.05
2022-10-12T18:06:34.388Z,15.98
2022-10-12T18:09:59.433Z,20.25
2022-10-12T18:13:23.399Z,17.48
2022-10-12T18:16:48.343Z,17.70
2022-10-12T18:20:12.410Z,25.05
2022-10-12T18:23:36.376Z,19.67
2022-10-12T18:27:01.398Z,19.88
2022-10-12T18:30:25.366Z,22.77
2022-10-12T18:33:49.397Z,21.27
2022-10-12T18:37:13.365Z,24.73
2022-10-12T18:40:41.884Z,22.35
2022-10-12T18:44:13.380Z,20.27
2022-10-12T18:47:37.407Z,24.23
2022-10-12T18:50:55.009Z,19.70
2022-10-12T18:54:13.424Z,23.17
2022-10-12T18:57:40.017Z,19.60
2022-10-12T19:01:04.546Z,18.23
2022-10-12T19:04:29.396Z,16.40
2022-10-12T19:07:53.399Z,17.10
2022-10-12T19:11:19.384Z,14.30
2022-10-12T19:14:43.420Z,14.52
2022-10-12T19:18:07.395Z,10.88
2022-10-12T19:21:33.431Z,11.73
2022-10-12T19:24:57.390Z,14.65
2022-10-12T19:28:22.464Z,12.32
2022-10-12T19:31:49.428Z,12.00
2022-10-12T19:35:14.390Z,13.85
2022-10-12T19:38:38.420Z,9.77
2022-10-12T19:42:01.390Z,10.65
2022-10-12T19:45:26.434Z,8.20
2022-10-12T19:48:51.443Z,9.75
2022-10-12T19:52:09.031Z,10.27
2022-10-12T19:55:27.526Z,9.70
2022-10-12T19:58:51.388Z,7.68
2022-10-12T20:02:17.694Z,8.23
2022-10-12T20:05:42.391Z,9.43
2022-10-12T20:09:07.466Z,6.85
2022-10-12T20:12:31.408Z,7.45
2022-10-12T20:15:55.445Z,7.88
2022-10-12T20:19:20.402Z,6.93
2022-10-12T20:22:44.447Z,8.20
2022-10-12T20:26:09.406Z,6.82
2022-10-12T20:29:33.456Z,6.03
2022-10-12T20:32:57.446Z,4.78
2022-10-12T20:36:25.446Z,4.72
2022-10-12T20:39:49.426Z,5.05
2022-10-12T20:43:13.437Z,5.63
2022-10-12T20:46:37.445Z,4.18
2022-10-12T20:50:02.433Z,5.32
2022-10-12T20:53:26.447Z,4.45
2022-10-12T20:56:50.432Z,4.72
2022-10-12T21:00:07.477Z,3.95
2022-10-12T21:03:31.427Z,3.22
2022-10-12T21:06:55.474Z,3.38
2022-10-12T21:10:19.444Z,2.60
2022-10-12T21:13:52.466Z,5.78
2022-10-12T21:17:16.387Z,4.05
2022-10-12T21:20:40.468Z,3.92
2022-10-12T21:24:11.436Z,2.85
2022-10-12T21:27:36.477Z,3.22
2022-10-12T21:31:00.419Z,3.65
2022-10-12T21:34:25.475Z,4.72
2022-10-12T21:37:49.435Z,4.22
2022-10-12T21:41:14.477Z,4.05
2022-10-12T21:44:38.469Z,4.82
2022-10-12T21:48:03.443Z,4.28
2022-10-12T21:51:27.455Z,3.50
2022-10-12T21:54:52.494Z,4.78
2022-10-12T21:58:16.482Z,5.10
2022-10-12T22:01:50.475Z,3.25
2022-10-12T22:05:15.476Z,4.10
2022-10-12T22:08:39.473Z,4.38
2022-10-12T22:12:06.493Z,3.75
2022-10-12T22:15:30.435Z,3.25
2022-10-12T22:19:01.473Z,5.35
2022-10-12T22:22:25.486Z,4.05
2022-10-12T22:25:49.470Z,5.75
2022-10-12T22:29:18.512Z,4.13
2022-10-12T22:32:42.468Z,3.85
2022-10-12T22:36:14.505Z,5.07
2022-10-12T22:39:39.487Z,6.07
2022-10-12T22:43:03.483Z,3.60
2022-10-12T22:46:27.474Z,6.57
2022-10-12T22:49:51.496Z,4.60
2022-10-12T22:53:16.486Z,4.50
2022-10-12T22:56:40.539Z,5.05
2022-10-12T23:00:05.489Z,4.93
2022-10-12T23:03:29.495Z,4.53
2022-10-12T23:06:59.481Z,4.63
2022-10-12T23:10:24.556Z,2.90
2022-10-12T23:13:49.518Z,2.97
2022-10-12T23:17:13.533Z,4.80
2022-10-12T23:20:37.510Z,5.13
2022-10-12T23:24:01.505Z,4.13
2022-10-12T23:27:25.494Z,5.30
2022-10-12T23:30:49.548Z,4.97
2022-10-12T23:34:18.525Z,4.35
2022-10-12T23:37:44.528Z,4.32
2022-10-12T23:41:08.541Z,4.13
2022-10-12T23:44:33.511Z,5.05
2022-10-12T23:47:57.516Z,8.15
2022-10-12T23:51:24.524Z,4.43
2022-10-12T23:54:48.554Z,5.18
2022-10-12T23:58:13.547Z,3.38
